Time;durP1;ratioP1;P1;durP2;ratioP2;P2;SDS_P1;SDS_P2;PMS_P1;PMS_P2;Temp;Humidity;BMP_temperature;BMP_pressure;BME280_temperature;BME280_humidity;BME280_pressure;Samples;Min_cycle;Max_cycle;Signal;HPM_P1;HPM_P2
2021/10/24 00:02:21;;;;;;;11.53;9.20;;;;;;;0.14;82.54;101404.69;4992486;28;20129;-64
2021/10/24 00:04:48;;;;;;;17.37;9.33;;;;;;;0.15;82.38;101416.84;4992307;28;20081;-65
2021/10/24 00:07:13;;;;;;;15.40;8.40;;;;;;;0.15;82.63;101424.72;4974471;28;20305;-61
2021/10/24 00:09:39;;;;;;;8.70;5.10;;;;;;;0.12;82.56;101430.13;4994680;28;20034;-62
2021/10/24 00:12:05;;;;;;;7.03;3.67;;;;;;;0.11;82.47;101425.81;4995704;28;20058;-64
2021/10/24 00:14:31;;;;;;;5.93;3.23;;;;;;;0.03;82.16;101425.38;4995710;28;20046;-62
2021/10/24 00:16:56;;;;;;;4.13;2.87;;;;;;;0.09;82.52;101440.75;4995618;28;20276;-64
2021/10/24 00:19:22;;;;;;;6.60;3.10;;;;;;;0.05;82.36;101452.31;4995765;28;20666;-67
2021/10/24 00:21:48;;;;;;;3.97;2.40;;;;;;;-0.03;82.93;101442.22;4995865;28;20093;-64
2021/10/24 00:24:13;;;;;;;3.90;3.27;;;;;;;-0.06;82.64;101452.00;4996129;28;20038;-63
2021/10/24 00:26:39;;;;;;;5.13;2.70;;;;;;;-0.03;82.52;101475.41;4995861;28;20062;-65
2021/10/24 00:29:04;;;;;;;8.03;2.87;;;;;;;-0.03;82.61;101478.03;4995691;28;20038;-64
2021/10/24 00:31:30;;;;;;;3.77;2.90;;;;;;;-0.04;83.02;101481.56;4995957;28;20041;-66
2021/10/24 00:33:57;;;;;;;6.70;3.30;;;;;;;-0.04;82.34;101492.03;4995366;28;20097;-66
2021/10/24 00:36:23;;;;;;;7.60;3.07;;;;;;;-0.10;82.79;101482.72;4995614;28;20347;-63
2021/10/24 00:38:49;;;;;;;8.77;2.97;;;;;;;-0.16;82.90;101476.97;4995662;28;20665;-64
2021/10/24 00:41:15;;;;;;;7.03;3.10;;;;;;;-0.10;82.80;101497.59;4995096;28;20042;-65
2021/10/24 00:43:41;;;;;;;12.93;3.57;;;;;;;-0.10;83.05;101501.06;4995136;28;20311;-65
2021/10/24 00:46:06;;;;;;;6.73;3.23;;;;;;;-0.18;83.11;101484.03;4995351;28;20265;-64
2021/10/24 00:48:31;;;;;;;6.40;3.03;;;;;;;-0.11;82.66;101506.38;4995088;28;20042;-65
2021/10/24 00:50:57;;;;;;;6.67;3.80;;;;;;;-0.03;82.87;101501.59;4995417;28;20121;-64
2021/10/24 00:53:22;;;;;;;5.13;3.47;;;;;;;-0.02;82.49;101505.91;4977454;28;20046;-66
2021/10/24 00:55:48;;;;;;;7.63;3.40;;;;;;;-0.02;82.72;101513.75;4995219;28;20124;-63
2021/10/24 00:58:17;;;;;;;5.13;2.87;;;;;;;-0.08;82.63;101500.97;4977466;28;20042;-66
2021/10/24 01:00:43;;;;;;;4.28;2.50;;;;;;;-0.69;82.09;101399.31;4977316;28;20038;-67
2021/10/24 01:03:08;;;;;;;5.17;2.80;;;;;;;0.01;82.52;101504.94;4995121;28;20038;-62
2021/10/24 01:05:36;;;;;;;8.30;2.80;;;;;;;0.07;81.39;101520.31;4995110;28;20045;-65
2021/10/24 01:08:02;;;;;;;12.57;4.50;;;;;;;0.07;82.12;101515.94;4995034;28;20509;-66
2021/10/24 01:10:28;;;;;;;12.90;6.00;;;;;;;0.04;82.03;101517.88;4995067;28;20281;-64
2021/10/24 01:12:54;;;;;;;11.20;7.60;;;;;;;0.01;81.97;101510.16;4994795;28;20292;-65
2021/10/24 01:15:23;;;;;;;9.27;6.50;;;;;;;-0.01;81.60;101510.22;4994665;28;20137;-63
2021/10/24 01:17:49;;;;;;;10.43;6.13;;;;;;;0.04;81.81;101520.50;4994855;28;20038;-64
2021/10/24 01:20:21;;;;;;;10.20;5.73;;;;;;;0.01;82.05;101524.09;4994093;28;20253;-66
2021/10/24 01:22:47;;;;;;;8.63;6.33;;;;;;;0.07;81.95;101530.81;4977299;28;20304;-66
2021/10/24 01:25:14;;;;;;;6.60;5.00;;;;;;;0.05;81.93;101536.13;4993272;28;20641;-64
2021/10/24 01:27:40;;;;;;;5.47;4.60;;;;;;;0.06;81.85;101524.72;4994582;28;20324;-64
2021/10/24 01:30:07;;;;;;;7.90;3.53;;;;;;;0.18;81.40;101542.44;4977317;28;20276;-63
2021/10/24 01:32:34;;;;;;;7.00;3.73;;;;;;;0.25;81.39;101542.97;4994728;28;20306;-62
2021/10/24 01:34:59;;;;;;;6.37;3.63;;;;;;;0.18;81.23;101531.94;4995002;28;20347;-62
2021/10/24 01:37:43;;;;;;;7.50;3.30;;;;;;;0.33;80.70;101546.06;4994723;28;20273;-65
2021/10/24 01:40:15;;;;;;;5.93;3.07;;;;;;;0.37;81.01;101546.75;4976472;28;20113;-62
2021/10/24 01:42:53;;;;;;;6.97;2.70;;;;;;;0.40;80.50;101549.22;4993831;28;20309;-63
2021/10/24 01:45:20;;;;;;;6.05;2.25;;;;;;;0.40;80.49;101554.44;4993319;28;20754;-63
2021/10/24 01:47:46;;;;;;;11.90;4.30;;;;;;;0.36;80.40;101547.69;4993848;28;20038;-61
2021/10/24 01:50:12;;;;;;;4.87;2.53;;;;;;;0.43;80.00;101559.53;4993859;28;20756;-61
2021/10/24 01:52:42;;;;;;;8.17;2.97;;;;;;;0.28;80.04;101533.16;4993914;28;20038;-62
2021/10/24 01:55:10;;;;;;;8.27;3.37;;;;;;;0.46;80.18;101570.69;4993313;28;20297;-64
2021/10/24 01:57:36;;;;;;;4.70;2.50;;;;;;;0.43;80.05;101575.25;4994160;28;20265;-61
2021/10/24 02:00:03;;;;;;;5.33;2.50;;;;;;;0.49;80.11;101574.94;4993738;28;20034;-65
2021/10/24 02:02:29;;;;;;;7.07;3.20;;;;;;;0.47;79.81;101564.53;4993870;28;20034;-61
2021/10/24 02:04:54;;;;;;;7.80;2.53;;;;;;;0.51;79.83;101584.41;4993719;28;20420;-60
2021/10/24 02:07:21;;;;;;;6.67;2.63;;;;;;;0.52;79.53;101585.25;4993606;28;20279;-64
2021/10/24 02:09:46;;;;;;;6.97;2.50;;;;;;;0.44;80.06;101574.31;4993573;28;20265;-61
2021/10/24 02:12:13;;;;;;;8.03;3.30;;;;;;;0.47;79.66;101587.28;4993615;28;20554;-64
2021/10/24 02:14:39;;;;;;;5.30;2.83;;;;;;;0.35;79.82;101569.56;4993494;28;20065;-62
2021/10/24 02:17:04;;;;;;;6.80;3.43;;;;;;;0.37;79.79;101588.66;4976203;28;20672;-60
2021/10/24 02:19:30;;;;;;;8.57;3.90;;;;;;;0.31;79.86;101592.44;4993388;28;20077;-61
2021/10/24 02:21:55;;;;;;;6.87;3.10;;;;;;;0.16;80.55;101580.09;4993466;28;20474;-62
2021/10/24 02:24:21;;;;;;;8.73;4.33;;;;;;;0.19;80.70;101601.75;4993215;28;20042;-65
2021/10/24 02:26:46;;;;;;;17.43;6.50;;;;;;;0.17;80.44;101603.59;4993536;28;20038;-60
2021/10/24 02:29:12;;;;;;;11.73;6.43;;;;;;;0.15;80.17;101594.97;4993863;28;20276;-62
2021/10/24 02:31:37;;;;;;;7.67;4.73;;;;;;;0.12;79.77;101592.50;4993346;28;20118;-61
2021/10/24 02:34:03;;;;;;;11.50;5.17;;;;;;;0.18;79.86;101594.81;4992838;28;20046;-60
2021/10/24 02:36:28;;;;;;;9.30;5.07;;;;;;;0.06;79.90;101581.50;4993112;28;20182;-64
2021/10/24 02:38:54;;;;;;;10.07;5.30;;;;;;;0.28;79.60;101603.91;4993210;28;20045;-62
2021/10/24 02:41:19;;;;;;;8.10;5.07;;;;;;;0.23;79.14;101599.81;4993396;28;20038;-63
2021/10/24 02:43:45;;;;;;;13.70;5.93;;;;;;;0.26;79.61;101615.38;4993238;28;20042;-60
2021/10/24 02:46:11;;;;;;;9.60;4.97;;;;;;;0.15;79.63;101596.75;4993599;28;20490;-61
2021/10/24 02:48:36;;;;;;;8.93;4.43;;;;;;;0.17;79.63;101621.94;4992986;28;20272;-63
2021/10/24 02:51:01;;;;;;;6.23;4.70;;;;;;;0.05;79.87;101601.59;4975810;28;20038;-61
2021/10/24 02:53:27;;;;;;;10.90;4.30;;;;;;;0.15;79.69;101626.41;4992815;28;20041;-61
2021/10/24 02:55:52;;;;;;;7.90;3.80;;;;;;;0.17;79.77;101632.41;4992901;28;20041;-66
2021/10/24 02:58:18;;;;;;;7.37;4.17;;;;;;;0.17;79.85;101636.81;4992978;28;20046;-61
2021/10/24 03:00:43;;;;;;;8.73;4.27;;;;;;;0.12;80.11;101623.94;4993043;28;20097;-60
2021/10/24 03:03:09;;;;;;;9.13;4.87;;;;;;;0.02;79.86;101606.13;4992685;28;20037;-62
2021/10/24 03:05:34;;;;;;;15.43;7.20;;;;;;;0.20;79.94;101641.88;4992529;28;20084;-60
2021/10/24 03:08:00;;;;;;;14.53;7.03;;;;;;;0.17;79.79;101637.66;4992514;28;20092;-61
2021/10/24 03:10:25;;;;;;;15.33;7.33;;;;;;;0.16;79.97;101646.44;4992868;28;20038;-61
2021/10/24 03:12:51;;;;;;;16.47;7.50;;;;;;;0.22;79.95;101663.63;4992614;28;20133;-63
2021/10/24 03:15:16;;;;;;;21.90;8.83;;;;;;;0.14;80.09;101653.53;4992844;28;20088;-63
2021/10/24 03:17:42;;;;;;;18.97;8.43;;;;;;;0.10;80.28;101651.97;4992691;28;20038;-60
2021/10/24 03:20:08;;;;;;;17.67;7.67;;;;;;;0.13;80.50;101674.56;4992499;28;20034;-63
2021/10/24 03:22:33;;;;;;;17.10;8.27;;;;;;;0.07;80.35;101672.22;4974995;28;20172;-61
2021/10/24 03:24:58;;;;;;;19.20;10.27;;;;;;;-0.01;80.83;101669.94;4992807;28;20053;-62
2021/10/24 03:27:24;;;;;;;18.20;9.50;;;;;;;-0.15;81.18;101652.28;4992997;28;20486;-62
2021/10/24 03:29:49;;;;;;;28.70;13.47;;;;;;;0.03;81.12;101689.03;4992354;28;20038;-63
2021/10/24 03:32:15;;;;;;;37.90;16.97;;;;;;;-0.03;81.43;101682.28;4992637;28;20030;-60
2021/10/24 03:34:40;;;;;;;35.23;17.60;;;;;;;-0.06;81.32;101682.41;4992687;28;20034;-60
2021/10/24 03:37:06;;;;;;;35.47;17.17;;;;;;;-0.06;81.37;101682.41;4992081;28;20081;-62
2021/10/24 03:39:31;;;;;;;35.40;18.40;;;;;;;-0.10;81.50;101681.72;4993005;28;20121;-59
2021/10/24 03:41:57;;;;;;;34.47;17.27;;;;;;;-0.12;81.30;101682.72;4992503;28;20089;-62
2021/10/24 03:44:22;;;;;;;37.13;18.83;;;;;;;-0.08;81.65;101699.97;4994593;28;20057;-60
2021/10/24 03:46:48;;;;;;;32.03;16.63;;;;;;;-0.18;81.34;101686.47;4996465;28;20034;-62
2021/10/24 03:49:13;;;;;;;39.17;18.97;;;;;;;-0.16;81.38;101686.41;4996333;28;20066;-64
2021/10/24 03:51:39;;;;;;;43.77;22.73;;;;;;;-0.13;81.12;101700.19;4996053;28;20084;-62
2021/10/24 03:54:04;;;;;;;44.43;19.23;;;;;;;-0.55;81.24;101632.38;4996397;28;20405;-60
2021/10/24 03:56:30;;;;;;;26.60;12.40;;;;;;;-0.08;80.54;101715.69;4995873;28;20046;-61
2021/10/24 03:58:55;;;;;;;25.17;12.93;;;;;;;-0.12;80.55;101707.13;4996663;28;20084;-60
2021/10/24 04:01:20;;;;;;;21.00;9.73;;;;;;;-0.15;80.90;101709.91;4997146;28;20038;-62
2021/10/24 04:03:46;;;;;;;22.53;8.57;;;;;;;-0.17;80.58;101724.81;4978631;28;20041;-61
2021/10/24 04:06:11;;;;;;;13.53;5.77;;;;;;;-0.23;79.96;101717.25;4996130;28;20080;-61
2021/10/24 04:08:37;;;;;;;11.40;5.73;;;;;;;-0.20;80.42;101726.75;4996174;28;20049;-60
2021/10/24 04:11:03;;;;;;;16.60;7.57;;;;;;;-0.25;80.34;101724.34;4996654;28;20125;-60
2021/10/24 04:13:29;;;;;;;11.77;5.50;;;;;;;-0.25;80.47;101724.34;4996468;28;20069;-59
2021/10/24 04:15:54;;;;;;;10.83;5.13;;;;;;;-0.21;79.65;101732.91;4996437;28;20421;-62
2021/10/24 04:18:20;;;;;;;10.87;5.13;;;;;;;-0.22;79.45;101739.91;4996003;28;20265;-62
2021/10/24 04:20:45;;;;;;;9.87;3.43;;;;;;;-0.27;79.80;101733.19;4995642;28;20034;-60
2021/10/24 04:23:10;;;;;;;4.30;2.90;;;;;;;-0.25;79.90;101736.56;4995686;28;20563;-61
2021/10/24 04:25:36;;;;;;;4.37;2.90;;;;;;;-0.23;79.37;101737.34;4995796;28;20120;-61
2021/10/24 04:28:02;;;;;;;4.00;2.43;;;;;;;-0.17;80.00;101761.47;4996272;28;20125;-62
2021/10/24 04:30:27;;;;;;;4.23;2.80;;;;;;;-0.19;79.24;101749.38;4995677;28;20030;-62
2021/10/24 04:32:53;;;;;;;5.03;3.00;;;;;;;-0.14;79.35;101757.88;4995631;28;20494;-60
2021/10/24 04:35:18;;;;;;;4.37;2.93;;;;;;;-0.08;79.02;101754.97;4995562;28;20042;-63
2021/10/24 04:37:44;;;;;;;8.67;2.83;;;;;;;-0.08;78.81;101752.34;4995999;28;20070;-60
2021/10/24 04:40:10;;;;;;;7.10;2.87;;;;;;;-0.14;78.96;101745.63;4995575;28;20034;-61
2021/10/24 04:42:36;;;;;;;4.73;2.83;;;;;;;0.05;79.04;101773.59;4995497;28;20413;-62
2021/10/24 04:45:04;;;;;;;5.03;2.87;;;;;;;0.07;79.01;101777.84;4995419;28;20262;-60
2021/10/24 04:47:30;;;;;;;3.87;2.77;;;;;;;0.10;79.06;101772.47;4995348;28;20262;-63
2021/10/24 04:49:56;;;;;;;7.10;3.33;;;;;;;0.10;79.38;101769.84;4994740;28;20041;-61
2021/10/24 04:52:21;;;;;;;6.77;3.13;;;;;;;0.10;79.50;101776.84;4995480;28;20053;-60
2021/10/24 04:54:47;;;;;;;7.60;3.30;;;;;;;0.13;79.71;101789.81;4994626;28;20064;-62
2021/10/24 04:57:12;;;;;;;9.33;3.50;;;;;;;0.20;79.62;101793.84;4994312;28;20133;-59
2021/10/24 04:59:38;;;;;;;6.07;3.27;;;;;;;0.12;79.71;101791.56;4994944;28;20049;-61
2021/10/24 05:02:03;;;;;;;7.33;2.90;;;;;;;0.09;79.17;101794.34;4995498;28;20034;-61
2021/10/24 05:04:29;;;;;;;6.40;3.30;;;;;;;0.16;79.72;101808.84;4994989;28;20042;-61
2021/10/24 05:06:54;;;;;;;7.90;2.67;;;;;;;0.16;79.78;101800.13;4994697;28;20540;-59
2021/10/24 05:09:20;;;;;;;5.97;2.77;;;;;;;0.21;79.11;101809.47;4995354;28;20689;-62
2021/10/24 05:11:46;;;;;;;12.63;3.20;;;;;;;0.22;79.39;101811.19;4994862;28;20065;-60
2021/10/24 05:14:12;;;;;;;5.50;2.83;;;;;;;0.21;79.44;101812.09;4977367;28;20152;-62
2021/10/24 05:16:37;;;;;;;4.83;2.63;;;;;;;0.21;78.93;101821.72;4995002;28;20100;-63
2021/10/24 05:19:04;;;;;;;7.30;2.77;;;;;;;0.27;78.86;101829.31;4977500;28;20273;-60
